Time;durP1;ratioP1;P1;durP2;ratioP2;P2;SDS_P1;SDS_P2;PMS_P1;PMS_P2;Temp;Humidity;BMP_temperature;BMP_pressure;BME280_temperature;BME280_humidity;BME280_pressure;Samples;Min_cycle;Max_cycle;Signal;HPM_P1;HPM_P2
2022/04/21 00:00:37;;;;;;;8.07;4.82;;;;;;;;;;5032080;28;20037;-61
2022/04/21 00:03:04;;;;;;;7.57;4.63;;;;;;;;;;5030916;28;20133;-61
2022/04/21 00:05:31;;;;;;;7.30;4.78;;;;;;;;;;5031679;28;20048;-61
2022/04/21 00:07:57;;;;;;;9.20;4.55;;;;;;;;;;5032024;28;20052;-61
2022/04/21 00:10:24;;;;;;;6.40;4.15;;;;;;;;;;5031411;28;20045;-61
2022/04/21 00:12:50;;;;;;;8.10;4.82;;;;;;;;;;5031870;28;20042;-61
2022/04/21 00:15:16;;;;;;;7.95;4.53;;;;;;;;;;5032050;28;20077;-61
2022/04/21 00:17:43;;;;;;;7.93;4.80;;;;;;;;;;5031392;28;20159;-61
2022/04/21 00:20:09;;;;;;;7.90;4.88;;;;;;;;;;5031804;28;20048;-61
2022/04/21 00:25:20;;;;;;;9.95;4.70;;;;;;;;;;5031492;28;20416;-61
2022/04/21 00:27:47;;;;;;;8.82;4.80;;;;;;;;;;5031865;28;20044;-61
2022/04/21 00:30:14;;;;;;;9.63;5.35;;;;;;;;;;5031869;28;20498;-61
2022/04/21 00:32:41;;;;;;;9.27;5.50;;;;;;;;;;5031080;28;20045;-61
2022/04/21 00:35:08;;;;;;;9.25;5.95;;;;;;;;;;5031772;28;20045;-61
2022/04/21 00:37:43;;;;;;;9.45;5.50;;;;;;;;;;5031428;28;20050;-61
2022/04/21 00:40:09;;;;;;;12.48;5.00;;;;;;;;;;5030998;28;20087;-61
2022/04/21 00:42:35;;;;;;;7.00;4.93;;;;;;;;;;5031787;28;20049;-61
2022/04/21 00:45:01;;;;;;;8.85;4.93;;;;;;;;;;5031957;28;20041;-61
2022/04/21 00:47:27;;;;;;;8.90;5.30;;;;;;;;;;5030957;28;20041;-61
2022/04/21 00:49:53;;;;;;;9.55;5.43;;;;;;;;;;5031687;28;20342;-61
2022/04/21 00:52:21;;;;;;;9.10;5.10;;;;;;;;;;5031630;28;20051;-61
2022/04/21 00:54:47;;;;;;;9.43;5.35;;;;;;;;;;5031312;28;20054;-61
2022/04/21 00:57:14;;;;;;;7.63;4.88;;;;;;;;;;5031556;28;20038;-61
2022/04/21 00:59:40;;;;;;;8.05;5.22;;;;;;;;;;5031398;28;20045;-61
2022/04/21 01:04:51;;;;;;;7.75;4.93;;;;;;;;;;5031479;28;20095;-61
2022/04/21 01:07:17;;;;;;;8.40;5.22;;;;;;;;;;5031254;28;20120;-61
2022/04/21 01:09:43;;;;;;;10.32;5.20;;;;;;;;;;5031169;28;20037;-61
2022/04/21 01:12:09;;;;;;;8.30;4.75;;;;;;;;;;5031525;28;20372;-61
2022/04/21 01:14:39;;;;;;;9.75;5.28;;;;;;;;;;5031358;28;20045;-61
2022/04/21 01:17:08;;;;;;;10.70;6.07;;;;;;;;;;5034164;28;20091;-61
2022/04/21 01:19:35;;;;;;;8.40;5.45;;;;;;;;;;5034833;28;20040;-61
2022/04/21 01:22:01;;;;;;;8.50;5.38;;;;;;;;;;5035102;28;20037;-61
2022/04/21 01:24:27;;;;;;;7.47;5.25;;;;;;;;;;5034301;28;20034;-61
2022/04/21 01:26:57;;;;;;;8.30;5.40;;;;;;;;;;5035032;28;20128;-61
2022/04/21 01:29:24;;;;;;;8.05;5.85;;;;;;;;;;5034611;28;20073;-61
2022/04/21 01:31:50;;;;;;;10.93;5.53;;;;;;;;;;5034683;28;20033;-61
2022/04/21 01:34:17;;;;;;;9.45;6.03;;;;;;;;;;5035038;28;20069;-62
2022/04/21 01:42:14;;;;;;;9.27;5.88;;;;;;;;;;5047555;28;20092;-61
2022/04/21 01:44:40;;;;;;;8.43;6.30;;;;;;;;;;5034853;28;20060;-61
2022/04/21 01:47:06;;;;;;;9.35;6.30;;;;;;;;;;5034005;28;20037;-61
2022/04/21 01:49:32;;;;;;;11.75;6.97;;;;;;;;;;5034534;28;20404;-61
2022/04/21 01:51:58;;;;;;;10.15;6.43;;;;;;;;;;5034782;28;20048;-61
2022/04/21 01:54:24;;;;;;;10.10;6.45;;;;;;;;;;5033653;28;20045;-61
2022/04/21 01:56:50;;;;;;;9.43;6.43;;;;;;;;;;5034321;28;20065;-61
2022/04/21 01:59:16;;;;;;;8.30;5.75;;;;;;;;;;5034402;28;20071;-61
2022/04/21 02:01:42;;;;;;;9.70;6.55;;;;;;;;;;5033450;28;20046;-61
2022/04/21 02:04:08;;;;;;;9.45;6.57;;;;;;;;;;5034405;28;20096;-61
2022/04/21 02:06:35;;;;;;;12.15;6.90;;;;;;;;;;5033910;28;20053;-61
2022/04/21 02:09:01;;;;;;;10.50;6.45;;;;;;;;;;5033274;28;20140;-61
2022/04/21 02:11:28;;;;;;;10.85;6.75;;;;;;;;;;5032951;28;20432;-61
2022/04/21 02:13:54;;;;;;;11.88;7.85;;;;;;;;;;5034195;28;20049;-61
2022/04/21 02:16:20;;;;;;;11.32;6.70;;;;;;;;;;5033385;28;20048;-61
2022/04/21 02:18:47;;;;;;;11.77;6.85;;;;;;;;;;5034008;28;20079;-61
2022/04/21 02:21:13;;;;;;;9.93;6.88;;;;;;;;;;5033851;28;20126;-61
2022/04/21 02:23:39;;;;;;;9.85;6.50;;;;;;;;;;5033025;28;20045;-61
2022/04/21 02:26:05;;;;;;;11.13;7.60;;;;;;;;;;5033202;28;20040;-61
2022/04/21 02:28:31;;;;;;;10.40;6.75;;;;;;;;;;5033835;28;20128;-61
2022/04/21 02:30:57;;;;;;;12.57;7.30;;;;;;;;;;5033117;28;20128;-61
2022/04/21 02:33:23;;;;;;;11.23;7.65;;;;;;;;;;5033690;28;20045;-61
2022/04/21 02:35:49;;;;;;;10.85;7.20;;;;;;;;;;5033835;28;20041;-61
2022/04/21 02:38:15;;;;;;;10.57;7.70;;;;;;;;;;5032848;28;20104;-61
2022/04/21 02:40:43;;;;;;;12.18;7.65;;;;;;;;;;5033572;28;20037;-61
2022/04/21 02:43:09;;;;;;;11.15;7.13;;;;;;;;;;5032539;28;20038;-61
2022/04/21 02:45:36;;;;;;;11.35;6.95;;;;;;;;;;5032696;28;20044;-61
2022/04/21 02:48:02;;;;;;;8.82;7.03;;;;;;;;;;5033125;28;20053;-61
2022/04/21 02:50:28;;;;;;;13.45;7.47;;;;;;;;;;5033261;28;20041;-61
2022/04/21 02:52:58;;;;;;;12.95;7.63;;;;;;;;;;5048024;28;20037;-61
2022/04/21 02:58:09;;;;;;;10.57;7.90;;;;;;;;;;5033068;28;20091;-61
2022/04/21 03:00:35;;;;;;;12.10;8.18;;;;;;;;;;5032628;28;20495;-61
2022/04/21 03:03:01;;;;;;;11.32;7.47;;;;;;;;;;5033258;28;20461;-61
2022/04/21 03:05:27;;;;;;;10.88;7.28;;;;;;;;;;5033005;28;20052;-61
2022/04/21 03:07:54;;;;;;;12.32;7.75;;;;;;;;;;5032641;28;20045;-61
2022/04/21 03:10:20;;;;;;;12.70;7.80;;;;;;;;;;5033430;28;20085;-61
2022/04/21 03:12:47;;;;;;;13.07;8.15;;;;;;;;;;5048444;28;20137;-61
2022/04/21 03:15:13;;;;;;;13.65;8.70;;;;;;;;;;5031275;28;20396;-61
2022/04/21 03:17:40;;;;;;;14.45;8.00;;;;;;;;;;5033033;28;20052;-61
2022/04/21 03:20:06;;;;;;;12.95;8.00;;;;;;;;;;5032714;28;20163;-62
2022/04/21 03:25:17;;;;;;;12.70;8.07;;;;;;;;;;5032996;28;20072;-61
2022/04/21 03:27:50;;;;;;;14.75;8.10;;;;;;;;;;5032610;28;20055;-61
2022/04/21 03:30:16;;;;;;;12.68;8.13;;;;;;;;;;5032545;28;20090;-61
2022/04/21 03:32:42;;;;;;;14.55;8.65;;;;;;;;;;5032857;28;20049;-61
2022/04/21 03:35:09;;;;;;;15.43;8.48;;;;;;;;;;5032854;28;20468;-61
2022/04/21 03:37:35;;;;;;;12.07;7.57;;;;;;;;;;5031627;28;20596;-61
2022/04/21 03:40:01;;;;;;;13.20;8.35;;;;;;;;;;5032627;28;20034;-61
2022/04/21 03:42:28;;;;;;;14.00;8.60;;;;;;;;;;5032528;28;20095;-61
2022/04/21 03:44:54;;;;;;;12.82;8.32;;;;;;;;;;5031875;28;20029;-61
2022/04/21 03:47:21;;;;;;;11.15;7.45;;;;;;;;;;5032661;28;20037;-61
2022/04/21 03:49:47;;;;;;;14.30;8.98;;;;;;;;;;5032536;28;20046;-61
2022/04/21 03:52:14;;;;;;;12.75;8.68;;;;;;;;;;5031997;28;20033;-61
2022/04/21 03:54:40;;;;;;;13.45;7.90;;;;;;;;;;5032878;28;20041;-61
2022/04/21 03:57:09;;;;;;;12.32;8.15;;;;;;;;;;5032546;28;20037;-61
2022/04/21 03:59:36;;;;;;;13.60;8.60;;;;;;;;;;5031841;28;20132;-61
2022/04/21 04:02:02;;;;;;;14.38;8.48;;;;;;;;;;5032478;28;20042;-61
2022/04/21 04:04:29;;;;;;;15.75;7.63;;;;;;;;;;5032453;28;20100;-61
2022/04/21 04:12:29;;;;;;;12.90;7.82;;;;;;;;;;5031990;28;20068;-61
2022/04/21 04:14:55;;;;;;;13.35;8.25;;;;;;;;;;5031765;28;20087;-61
2022/04/21 04:17:21;;;;;;;11.77;7.65;;;;;;;;;;5032042;28;20125;-61
2022/04/21 04:19:47;;;;;;;10.57;7.53;;;;;;;;;;5032158;28;20041;-61
2022/04/21 04:22:15;;;;;;;11.18;7.93;;;;;;;;;;5031694;28;20045;-61
2022/04/21 04:24:41;;;;;;;11.73;7.80;;;;;;;;;;5032292;28;20052;-61
2022/04/21 04:27:07;;;;;;;12.95;8.20;;;;;;;;;;5032226;28;20430;-61
2022/04/21 04:29:33;;;;;;;15.52;9.18;;;;;;;;;;5031490;28;20069;-61
2022/04/21 04:32:01;;;;;;;13.13;8.48;;;;;;;;;;5032031;28;20057;-63
2022/04/21 04:34:27;;;;;;;11.80;8.23;;;;;;;;;;5032397;28;20516;-63
2022/04/21 04:36:53;;;;;;;13.30;8.50;;;;;;;;;;5031390;28;20053;-64
2022/04/21 04:39:19;;;;;;;13.27;8.23;;;;;;;;;;5031961;28;20050;-63
2022/04/21 04:44:31;;;;;;;12.55;7.70;;;;;;;;;;5031262;28;20493;-61
2022/04/21 04:46:57;;;;;;;14.00;8.60;;;;;;;;;;5032394;28;20396;-61
2022/04/21 04:49:23;;;;;;;12.80;8.73;;;;;;;;;;5033001;28;20045;-61
2022/04/21 04:51:50;;;;;;;13.55;8.13;;;;;;;;;;5035278;28;20045;-61
2022/04/21 04:54:17;;;;;;;12.85;7.90;;;;;;;;;;5036005;28;20047;-61
2022/04/21 04:56:45;;;;;;;16.92;9.85;;;;;;;;;;5035830;28;20045;-61
2022/04/21 04:59:11;;;;;;;16.02;9.25;;;;;;;;;;5035315;28;20052;-63
2022/04/21 05:01:41;;;;;;;12.23;8.35;;;;;;;;;;5035641;28;20034;-63
2022/04/21 05:04:07;;;;;;;13.95;8.63;;;;;;;;;;5035230;28;20091;-65
2022/04/21 05:06:37;;;;;;;14.02;8.50;;;;;;;;;;5035016;28;20049;-63
2022/04/21 05:09:04;;;;;;;13.93;8.48;;;;;;;;;;5035565;28;20052;-63
2022/04/21 05:11:31;;;;;;;13.40;8.60;;;;;;;;;;5035578;28;20048;-63
2022/04/21 05:13:57;;;;;;;13.93;9.20;;;;;;;;;;5035110;28;20046;-63
2022/04/21 05:16:23;;;;;;;15.77;8.77;;;;;;;;;;5035558;28;20053;-63
2022/04/21 05:18:49;;;;;;;15.07;9.15;;;;;;;;;;5035466;28;20049;-63
2022/04/21 05:21:17;;;;;;;14.55;9.20;;;;;;;;;;5034454;28;20039;-64
2022/04/21 05:23:45;;;;;;;12.77;8.95;;;;;;;;;;5035339;28;20516;-63
2022/04/21 05:26:11;;;;;;;12.82;8.98;;;;;;;;;;5035461;28;20387;-63
2022/04/21 05:28:37;;;;;;;17.50;9.48;;;;;;;;;;5034653;28;20038;-63
2022/04/21 05:31:03;;;;;;;14.23;8.52;;;;;;;;;;5050501;28;20050;-63
2022/04/21 05:33:30;;;;;;;11.57;8.80;;;;;;;;;;5033842;28;20045;-63
2022/04/21 05:35:57;;;;;;;13.13;9.10;;;;;;;;;;5050042;28;20041;-63
2022/04/21 05:38:23;;;;;;;17.13;8.85;;;;;;;;;;5035524;28;20383;-63
2022/04/21 05:40:50;;;;;;;13.23;9.13;;;;;;;;;;5034968;28;20073;-63
2022/04/21 05:43:20;;;;;;;13.50;8.70;;;;;;;;;;5034336;28;20077;-63
2022/04/21 05:45:47;;;;;;;14.60;8.77;;;;;;;;;;5034783;28;20038;-63
2022/04/21 05:48:14;;;;;;;13.02;9.43;;;;;;;;;;5034971;28;20373;-63
2022/04/21 05:50:42;;;;;;;14.20;9.15;;;;;;;;;;5034182;28;20065;-64
2022/04/21 05:53:10;;;;;;;13.90;8.20;;;;;;;;;;5034636;28;20048;-62
2022/04/21 05:55:36;;;;;;;12.38;8.45;;;;;;;;;;5034938;28;20073;-62
2022/04/21 05:58:03;;;;;;;12.77;7.90;;;;;;;;;;5033910;28;20052;-61
2022/04/21 06:00:29;;;;;;;13.77;8.70;;;;;;;;;;5034212;28;20033;-61
2022/04/21 06:02:55;;;;;;;11.40;7.95;;;;;;;;;;5033951;28;20241;-61
2022/04/21 06:05:21;;;;;;;14.02;8.35;;;;;;;;;;5033417;28;20056;-61
2022/04/21 06:07:47;;;;;;;13.60;8.50;;;;;;;;;;5032706;28;20050;-61
2022/04/21 06:10:13;;;;;;;11.15;7.60;;;;;;;;;;5034354;28;20411;-61
2022/04/21 06:12:39;;;;;;;16.27;8.48;;;;;;;;;;5033838;28;20045;-61
2022/04/21 06:15:06;;;;;;;10.75;7.82;;;;;;;;;;5034302;28;20487;-61
2022/04/21 06:17:32;;;;;;;16.40;8.13;;;;;;;;;;5034100;28;20045;-61
2022/04/21 06:19:58;;;;;;;12.75;7.97;;;;;;;;;;5033219;28;20128;-61
2022/04/21 06:22:24;;;;;;;10.82;7.75;;;;;;;;;;5034125;28;20252;-61
2022/04/21 06:24:50;;;;;;;12.90;7.35;;;;;;;;;;5034413;28;20063;-61
2022/04/21 06:27:16;;;;;;;13.10;8.35;;;;;;;;;;5033137;28;20037;-61
2022/04/21 06:29:44;;;;;;;20.20;8.48;;;;;;;;;;5048991;28;20523;-61
2022/04/21 06:32:10;;;;;;;12.38;8.13;;;;;;;;;;5030971;28;20530;-64
2022/04/21 06:34:36;;;;;;;11.63;7.35;;;;;;;;;;5031937;28;20068;-64
2022/04/21 06:37:02;;;;;;;11.93;7.50;;;;;;;;;;5029185;28;20040;-60
2022/04/21 06:39:28;;;;;;;11.70;7.22;;;;;;;;;;5032147;28;20044;-61
2022/04/21 06:41:54;;;;;;;9.65;6.10;;;;;;;;;;5032038;28;20480;-61
2022/04/21 06:49:50;;;;;;;10.23;5.50;;;;;;;;;;5030929;28;20045;-62
2022/04/21 06:52:16;;;;;;;10.18;5.05;;;;;;;;;;5033340;28;20477;-62
2022/04/21 06:54:42;;;;;;;9.50;5.35;;;;;;;;;;5033436;28;20045;-63
2022/04/21 06:57:08;;;;;;;6.80;5.20;;;;;;;;;;5031836;28;20095;-62
2022/04/21 06:59:34;;;;;;;9.48;5.28;;;;;;;;;;5033646;28;20030;-63
2022/04/21 07:02:00;;;;;;;7.55;4.75;;;;;;;;;;5033433;28;20037;-63
2022/04/21 07:04:27;;;;;;;8.55;4.65;;;;;;;;;;5034072;28;20049;-62
2022/04/21 07:06:54;;;;;;;8.15;4.97;;;;;;;;;;5036024;28;20045;-61
2022/04/21 07:09:20;;;;;;;6.90;4.30;;;;;;;;;;5034038;28;20037;-61
2022/04/21 07:11:46;;;;;;;8.05;4.65;;;;;;;;;;5033361;28;20053;-62
2022/04/21 07:14:12;;;;;;;8.02;4.15;;;;;;;;;;5034796;28;20057;-61
2022/04/21 07:16:38;;;;;;;4.97;4.03;;;;;;;;;;5036541;28;20049;-61
2022/04/21 07:19:04;;;;;;;6.25;3.80;;;;;;;;;;5033910;28;20244;-63
2022/04/21 07:21:30;;;;;;;5.35;3.47;;;;;;;;;;5034579;28;20046;-63
2022/04/21 07:23:56;;;;;;;6.88;3.78;;;;;;;;;;5033771;28;20099;-63
2022/04/21 07:26:22;;;;;;;6.18;3.65;;;;;;;;;;5030470;28;20045;-62
2022/04/21 07:28:48;;;;;;;6.82;3.60;;;;;;;;;;5023702;28;20443;-62
2022/04/21 07:31:15;;;;;;;4.60;2.88;;;;;;;;;;5030782;28;20038;-63
2022/04/21 07:33:42;;;;;;;4.85;3.20;;;;;;;;;;5011920;28;20092;-61
2022/04/21 07:36:08;;;;;;;6.47;2.90;;;;;;;;;;5031229;28;20049;-62
2022/04/21 07:38:34;;;;;;;5.82;2.88;;;;;;;;;;5029111;28;20499;-60
2022/04/21 07:41:01;;;;;;;7.18;2.83;;;;;;;;;;5030293;28;20056;-61
2022/04/21 07:43:27;;;;;;;4.15;2.47;;;;;;;;;;5024409;28;20435;-61
2022/04/21 07:45:53;;;;;;;5.03;3.22;;;;;;;;;;5028624;28;20057;-61
2022/04/21 07:48:19;;;;;;;6.80;3.30;;;;;;;;;;5029925;28;20045;-60
2022/04/21 07:50:46;;;;;;;5.40;2.83;;;;;;;;;;5029680;28;20119;-60
2022/04/21 07:53:14;;;;;;;4.10;2.20;;;;;;;;;;5030769;28;20100;-61
2022/04/21 07:55:42;;;;;;;6.45;2.90;;;;;;;;;;5029980;28;20141;-62
2022/04/21 07:58:09;;;;;;;4.53;2.40;;;;;;;;;;5031184;28;20046;-63
2022/04/21 08:00:38;;;;;;;4.45;2.78;;;;;;;;;;5030374;28;20375;-63
2022/04/21 08:03:04;;;;;;;7.43;2.80;;;;;;;;;;5028059;28;20057;-62
2022/04/21 08:05:30;;;;;;;4.10;3.10;;;;;;;;;;5030295;28;20052;-61
2022/04/21 08:07:57;;;;;;;4.32;2.60;;;;;;;;;;5030647;28;20046;-62
2022/04/21 08:10:24;;;;;;;4.40;2.60;;;;;;;;;;5030003;28;20741;-62
2022/04/21 08:12:53;;;;;;;5.28;2.83;;;;;;;;;;5030572;28;20740;-62
2022/04/21 08:15:26;;;;;;;2.95;2.08;;;;;;;;;;5030746;28;20081;-62
2022/04/21 08:17:54;;;;;;;6.00;3.00;;;;;;;;;;5029930;28;20423;-62
2022/04/21 08:20:20;;;;;;;3.38;2.75;;;;;;;;;;5030419;28;20092;-62
2022/04/21 08:22:46;;;;;;;4.75;2.90;;;;;;;;;;5029760;28;20113;-61
2022/04/21 08:33:27;;;;;;;3.67;3.00;;;;;;;;;;5033123;28;20037;-61
2022/04/21 08:35:58;;;;;;;4.88;3.05;;;;;;;;;;5034393;28;20041;-61
2022/04/21 08:38:27;;;;;;;3.13;2.58;;;;;;;;;;5034554;28;20469;-62
2022/04/21 08:40:54;;;;;;;6.13;3.17;;;;;;;;;;5032856;28;20045;-60
2022/04/21 08:43:21;;;;;;;3.38;2.90;;;;;;;;;;5032557;28;20075;-62
2022/04/21 08:45:48;;;;;;;4.78;3.55;;;;;;;;;;5034388;28;20111;-62
2022/04/21 08:48:15;;;;;;;6.68;3.35;;;;;;;;;;5033081;28;20033;-63
2022/04/21 08:50:41;;;;;;;7.28;3.90;;;;;;;;;;5033725;28;20763;-63
2022/04/21 08:53:08;;;;;;;6.55;3.13;;;;;;;;;;5033851;28;20525;-62
2022/04/21 08:55:34;;;;;;;5.22;3.13;;;;;;;;;;5033404;28;20056;-61
2022/04/21 08:58:00;;;;;;;6.60;3.30;;;;;;;;;;5033519;28;20041;-63
2022/04/21 09:00:27;;;;;;;6.90;3.60;;;;;;;;;;5034458;28;20136;-62
2022/04/21 09:02:53;;;;;;;6.88;3.20;;;;;;;;;;5034715;28;20037;-62
2022/04/21 09:05:22;;;;;;;6.03;2.85;;;;;;;;;;5034802;28;20100;-62
2022/04/21 09:07:52;;;;;;;3.80;2.90;;;;;;;;;;5033371;28;20041;-63
2022/04/21 09:10:19;;;;;;;6.63;3.25;;;;;;;;;;5033106;28;20041;-62
2022/04/21 09:12:46;;;;;;;4.50;2.88;;;;;;;;;;5032258;28;20037;-62
2022/04/21 09:15:14;;;;;;;8.68;3.17;;;;;;;;;;5032901;28;20495;-62
2022/04/21 09:17:45;;;;;;;4.70;3.20;;;;;;;;;;5032913;28;20042;-61
2022/04/21 09:20:11;;;;;;;3.33;2.35;;;;;;;;;;5030394;28;20077;-62
2022/04/21 09:22:40;;;;;;;5.05;3.00;;;;;;;;;;5032801;28;20038;-61
2022/04/21 09:25:06;;;;;;;5.03;2.60;;;;;;;;;;5031166;28;20053;-62
2022/04/21 09:27:45;;;;;;;6.32;2.85;;;;;;;;;;5032743;28;20053;-63
2022/04/21 09:30:15;;;;;;;5.97;3.00;;;;;;;;;;5032646;28;20100;-63
2022/04/21 09:32:42;;;;;;;4.82;2.80;;;;;;;;;;5047030;28;20103;-63
2022/04/21 09:35:09;;;;;;;4.97;3.10;;;;;;;;;;5032389;28;20049;-62
2022/04/21 09:37:45;;;;;;;5.45;2.95;;;;;;;;;;5032016;28;20548;-62
2022/04/21 09:40:11;;;;;;;2.65;2.45;;;;;;;;;;5032035;28;20049;-64
2022/04/21 09:42:37;;;;;;;4.60;3.15;;;;;;;;;;5031688;28;20033;-63
2022/04/21 09:47:53;;;;;;;5.93;2.83;;;;;;;;;;5031404;28;20072;-62
2022/04/21 09:50:20;;;;;;;4.63;2.78;;;;;;;;;;5031615;28;20563;-63
2022/04/21 09:52:47;;;;;;;3.83;2.63;;;;;;;;;;5032034;28;20049;-61
2022/04/21 09:55:26;;;;;;;3.42;2.50;;;;;;;;;;5031882;28;20060;-62
2022/04/21 09:58:05;;;;;;;3.70;2.75;;;;;;;;;;5016371;28;20119;-63
2022/04/21 10:00:31;;;;;;;4.40;2.58;;;;;;;;;;5029362;28;20041;-62
2022/04/21 10:02:57;;;;;;;6.38;2.83;;;;;;;;;;5030301;28;20045;-63
2022/04/21 10:05:25;;;;;;;3.92;2.50;;;;;;;;;;5030921;28;20073;-62
2022/04/21 10:07:51;;;;;;;3.53;2.38;;;;;;;;;;5032336;28;20081;-63
2022/04/21 10:10:17;;;;;;;5.00;2.50;;;;;;;;;;5030972;28;20037;-62
2022/04/21 10:12:44;;;;;;;3.67;2.25;;;;;;;;;;5031813;28;20069;-62
2022/04/21 10:15:11;;;;;;;3.47;2.40;;;;;;;;;;5032319;28;20057;-62
2022/04/21 10:17:37;;;;;;;6.07;2.78;;;;;;;;;;5031222;28;20705;-63
2022/04/21 10:20:04;;;;;;;7.20;2.88;;;;;;;;;;5031928;28;20483;-62
2022/04/21 10:22:33;;;;;;;3.72;2.50;;;;;;;;;;5031689;28;20037;-63
2022/04/21 10:24:59;;;;;;;3.03;2.38;;;;;;;;;;5030428;28;20045;-63
2022/04/21 10:27:38;;;;;;;3.10;2.38;;;;;;;;;;5031778;28;20056;-63
2022/04/21 10:30:34;;;;;;;4.18;2.47;;;;;;;;;;5030381;28;20037;-64
2022/04/21 10:33:01;;;;;;;4.35;2.55;;;;;;;;;;5011449;28;20215;-62
2022/04/21 10:35:34;;;;;;;4.50;3.08;;;;;;;;;;5031574;28;20131;-62
2022/04/21 10:38:15;;;;;;;4.32;2.80;;;;;;;;;;5030278;28;20383;-62
2022/04/21 10:40:56;;;;;;;6.40;3.15;;;;;;;;;;5031012;28;20107;-61
2022/04/21 10:43:23;;;;;;;5.13;3.08;;;;;;;;;;5031280;28;20168;-62
2022/04/21 10:46:05;;;;;;;4.95;2.60;;;;;;;;;;5031430;28;20135;-62
2022/04/21 10:48:41;;;;;;;6.88;2.80;;;;;;;;;;5025109;28;20172;-63
2022/04/21 10:51:07;;;;;;;3.92;2.60;;;;;;;;;;5031423;28;20051;-63
2022/04/21 10:59:28;;;;;;;4.28;2.67;;;;;;;;;;5028565;28;20049;-64
2022/04/21 11:01:54;;;;;;;4.20;2.63;;;;;;;;;;5030879;28;20056;-63
2022/04/21 11:04:21;;;;;;;6.97;2.92;;;;;;;;;;5030759;28;20124;-62
2022/04/21 11:06:51;;;;;;;4.38;2.80;;;;;;;;;;5030921;28;20064;-64
2022/04/21 11:09:36;;;;;;;5.80;3.47;;;;;;;;;;5031619;28;20034;-62
2022/04/21 11:12:04;;;;;;;4.13;2.67;;;;;;;;;;5035277;28;20065;-62
2022/04/21 11:14:32;;;;;;;6.05;2.53;;;;;;;;;;5049165;28;20041;-63
2022/04/21 11:16:58;;;;;;;2.63;2.42;;;;;;;;;;5035389;28;20486;-63
2022/04/21 11:19:33;;;;;;;4.82;2.65;;;;;;;;;;5036170;28;20041;-62
2022/04/21 11:22:00;;;;;;;4.93;2.80;;;;;;;;;;5037025;28;20384;-62
2022/04/21 11:24:26;;;;;;;3.42;2.60;;;;;;;;;;5034814;28;20107;-63
2022/04/21 11:26:59;;;;;;;3.63;2.50;;;;;;;;;;5034940;28;20037;-63
2022/04/21 11:29:26;;;;;;;6.13;2.83;;;;;;;;;;5033640;28;20787;-62
2022/04/21 11:31:56;;;;;;;2.75;2.55;;;;;;;;;;5034369;28;20064;-63
2022/04/21 11:34:23;;;;;;;3.83;2.78;;;;;;;;;;5036654;28;20124;-63
2022/04/21 11:36:49;;;;;;;3.75;2.30;;;;;;;;;;5034126;28;20073;-62
2022/04/21 11:39:15;;;;;;;3.10;2.10;;;;;;;;;;5034278;28;20469;-62
2022/04/21 11:41:43;;;;;;;3.70;1.98;;;;;;;;;;5034981;28;20045;-62
2022/04/21 11:44:09;;;;;;;2.92;1.90;;;;;;;;;;5035170;28;20047;-63
2022/04/21 11:46:39;;;;;;;4.28;2.40;;;;;;;;;;5033836;28;20044;-63
2022/04/21 11:49:05;;;;;;;3.30;3.00;;;;;;;;;;5034770;28;20148;-62
2022/04/21 11:51:31;;;;;;;3.75;2.75;;;;;;;;;;5033288;28;20045;-63
2022/04/21 11:54:05;;;;;;;5.85;3.15;;;;;;;;;;5034410;28;20041;-63
2022/04/21 11:56:31;;;;;;;4.70;2.70;;;;;;;;;;5011401;28;20400;-62
2022/04/21 11:58:57;;;;;;;4.00;2.53;;;;;;;;;;5003734;28;20146;-62
2022/04/21 12:06:58;;;;;;;4.65;3.10;;;;;;;;;;5031067;28;20065;-64
2022/04/21 12:09:26;;;;;;;6.03;2.58;;;;;;;;;;5030789;28;20041;-64
2022/04/21 12:11:56;;;;;;;3.67;2.85;;;;;;;;;;5030750;28;20052;-64
2022/04/21 12:14:23;;;;;;;2.65;2.40;;;;;;;;;;5031957;28;20145;-63
2022/04/21 12:16:53;;;;;;;3.15;2.40;;;;;;;;;;5032372;28;20057;-64
2022/04/21 12:19:20;;;;;;;4.47;2.33;;;;;;;;;;5030996;28;20171;-64
2022/04/21 12:22:06;;;;;;;4.15;2.80;;;;;;;;;;5030210;28;20504;-65
2022/04/21 12:24:43;;;;;;;4.07;2.70;;;;;;;;;;5031212;28;20472;-66
2022/04/21 12:27:16;;;;;;;5.78;2.70;;;;;;;;;;5030342;28;20038;-65
2022/04/21 12:29:51;;;;;;;6.40;3.20;;;;;;;;;;5028008;28;20037;-64
2022/04/21 12:32:27;;;;;;;4.80;2.92;;;;;;;;;;5031085;28;20077;-64
2022/04/21 12:34:58;;;;;;;3.70;2.83;;;;;;;;;;5030188;28;20057;-65
2022/04/21 12:37:29;;;;;;;6.78;3.17;;;;;;;;;;5029717;28;20427;-65
2022/04/21 12:39:56;;;;;;;5.55;3.33;;;;;;;;;;5030425;28;20088;-64
2022/04/21 12:42:22;;;;;;;5.60;3.05;;;;;;;;;;5029768;28;20037;-65
2022/04/21 12:44:50;;;;;;;3.45;2.83;;;;;;;;;;5029990;28;20059;-65
2022/04/21 12:47:19;;;;;;;5.47;3.53;;;;;;;;;;5029268;28;20048;-64
2022/04/21 12:49:50;;;;;;;6.55;3.78;;;;;;;;;;5029424;28;20526;-65
2022/04/21 12:52:27;;;;;;;6.63;3.17;;;;;;;;;;5028648;28;20404;-65
2022/04/21 12:54:53;;;;;;;3.67;2.90;;;;;;;;;;5030974;28;20137;-64
2022/04/21 12:57:19;;;;;;;7.60;3.15;;;;;;;;;;5029345;28;20068;-64
2022/04/21 12:59:46;;;;;;;6.07;3.35;;;;;;;;;;5030561;28;20571;-65
2022/04/21 13:02:13;;;;;;;4.45;3.17;;;;;;;;;;5030257;28;20074;-64
2022/04/21 13:04:40;;;;;;;5.75;3.00;;;;;;;;;;5029263;28;20129;-65
2022/04/21 13:07:08;;;;;;;5.18;3.50;;;;;;;;;;5029788;28;20103;-65
2022/04/21 13:09:35;;;;;;;5.18;3.22;;;;;;;;;;5030179;28;20025;-64
2022/04/21 13:12:01;;;;;;;4.63;3.22;;;;;;;;;;5032954;28;20056;-64
2022/04/21 13:14:28;;;;;;;4.68;3.13;;;;;;;;;;5033716;28;20041;-65
2022/04/21 13:16:54;;;;;;;3.75;3.10;;;;;;;;;;5034157;28;20132;-65
2022/04/21 13:19:20;;;;;;;5.88;3.60;;;;;;;;;;5034406;28;20045;-65
2022/04/21 13:21:52;;;;;;;6.10;3.55;;;;;;;;;;5032737;28;20048;-65
2022/04/21 13:24:19;;;;;;;4.00;3.60;;;;;;;;;;5034232;28;20065;-64
2022/04/21 13:26:46;;;;;;;7.10;3.60;;;;;;;;;;5033819;28;20112;-65
2022/04/21 13:29:13;;;;;;;3.88;3.47;;;;;;;;;;5033198;28;20040;-65
2022/04/21 13:34:24;;;;;;;6.00;3.40;;;;;;;;;;5043130;28;20183;-64
2022/04/21 13:36:51;;;;;;;7.00;3.45;;;;;;;;;;5033796;28;20541;-65
2022/04/21 13:39:18;;;;;;;6.20;3.38;;;;;;;;;;5033480;28;20049;-66
2022/04/21 13:41:44;;;;;;;4.40;3.67;;;;;;;;;;5033964;28;20050;-64
2022/04/21 13:44:10;;;;;;;6.00;3.40;;;;;;;;;;5033540;28;20048;-65
2022/04/21 13:46:37;;;;;;;5.28;3.53;;;;;;;;;;5015985;28;20087;-65
2022/04/21 13:49:04;;;;;;;4.82;3.10;;;;;;;;;;5033806;28;20103;-65
2022/04/21 13:51:30;;;;;;;4.90;3.20;;;;;;;;;;5031489;28;20460;-65
2022/04/21 13:53:56;;;;;;;5.25;3.00;;;;;;;;;;5033839;28;20045;-64
2022/04/21 13:56:23;;;;;;;5.43;3.08;;;;;;;;;;5034266;28;20060;-64
2022/04/21 13:58:50;;;;;;;6.40;3.25;;;;;;;;;;5033692;28;20041;-64
2022/04/21 14:01:16;;;;;;;5.45;2.83;;;;;;;;;;5033982;28;20045;-64
2022/04/21 14:03:42;;;;;;;4.05;2.80;;;;;;;;;;5034397;28;20473;-64
2022/04/21 14:06:09;;;;;;;5.50;3.20;;;;;;;;;;5029917;28;20484;-64
2022/04/21 14:08:36;;;;;;;4.00;2.95;;;;;;;;;;5034371;28;20094;-65
2022/04/21 14:11:05;;;;;;;5.13;3.40;;;;;;;;;;5034114;28;20046;-64
2022/04/21 14:13:31;;;;;;;8.68;3.35;;;;;;;;;;5032644;28;20037;-65
2022/04/21 14:16:00;;;;;;;5.80;3.17;;;;;;;;;;5034891;28;20044;-64
2022/04/21 14:18:26;;;;;;;9.50;3.58;;;;;;;;;;5032557;28;20052;-64
2022/04/21 14:20:52;;;;;;;3.33;3.00;;;;;;;;;;5032668;28;20548;-64
2022/04/21 14:23:19;;;;;;;7.70;3.50;;;;;;;;;;5031988;28;20490;-65
2022/04/21 14:25:45;;;;;;;4.05;3.20;;;;;;;;;;5033482;28;20045;-64
2022/04/21 14:28:11;;;;;;;3.88;3.15;;;;;;;;;;5031391;28;20041;-65
2022/04/21 14:30:39;;;;;;;3.80;3.38;;;;;;;;;;5033515;28;20056;-65
2022/04/21 14:33:05;;;;;;;7.32;3.28;;;;;;;;;;5032779;28;20072;-65
2022/04/21 14:35:31;;;;;;;5.55;3.30;;;;;;;;;;5032742;28;20056;-65
2022/04/21 14:46:14;;;;;;;4.65;3.53;;;;;;;;;;5032848;28;20041;-64
2022/04/21 14:48:42;;;;;;;4.07;3.67;;;;;;;;;;5032866;28;20041;-64
2022/04/21 14:51:08;;;;;;;5.85;3.78;;;;;;;;;;5032187;28;20399;-64
2022/04/21 14:53:34;;;;;;;5.60;4.07;;;;;;;;;;5032140;28;20056;-64
2022/04/21 14:56:00;;;;;;;8.15;4.05;;;;;;;;;;5032857;28;20489;-65
2022/04/21 14:58:26;;;;;;;6.05;3.60;;;;;;;;;;5030638;28;20038;-65
2022/04/21 15:00:52;;;;;;;5.55;3.80;;;;;;;;;;5032956;28;20404;-64
2022/04/21 15:03:18;;;;;;;6.07;3.78;;;;;;;;;;5032639;28;20041;-64
2022/04/21 15:05:44;;;;;;;6.47;3.78;;;;;;;;;;5032907;28;20424;-64
2022/04/21 15:08:10;;;;;;;4.80;3.80;;;;;;;;;;5033104;28;20045;-64
2022/04/21 15:10:42;;;;;;;4.60;3.70;;;;;;;;;;5031615;28;20045;-65
2022/04/21 15:13:08;;;;;;;;;;;;;;;;;;5032422;28;20507;-64
2022/04/21 15:15:35;;;;;;;4.65;3.60;;;;;;;;;;5032293;28;20244;-65
2022/04/21 15:18:01;;;;;;;5.97;4.18;;;;;;;;;;5032595;28;20046;-64
2022/04/21 15:20:29;;;;;;;5.47;4.07;;;;;;;;;;5031431;28;20070;-64
2022/04/21 15:22:55;;;;;;;6.40;3.72;;;;;;;;;;5031649;28;20045;-65
2022/04/21 15:25:21;;;;;;;10.30;4.10;;;;;;;;;;5029690;28;20045;-64
2022/04/21 15:27:48;;;;;;;6.15;3.90;;;;;;;;;;5022001;28;20045;-64
2022/04/21 15:30:14;;;;;;;5.63;4.03;;;;;;;;;;5030666;28;20041;-64
2022/04/21 15:32:40;;;;;;;8.18;4.20;;;;;;;;;;5029152;28;20060;-64
2022/04/21 15:35:07;;;;;;;7.28;4.90;;;;;;;;;;5028714;28;20167;-64
2022/04/21 15:37:33;;;;;;;4.97;4.30;;;;;;;;;;5030376;28;20328;-64
2022/04/21 15:40:02;;;;;;;6.28;5.13;;;;;;;;;;5030536;28;20091;-64
2022/04/21 15:42:28;;;;;;;5.35;4.70;;;;;;;;;;5029027;28;20037;-64